sensor_id;sensor_type;location;lat;lon;timestamp;temperature;humidity
44305;DHT22;30019;50.576;8.568;2022-11-20T00:02:00;-0.90;99.90
44305;DHT22;30019;50.576;8.568;2022-11-20T00:04:25;-1.00;99.90
44305;DHT22;30019;50.576;8.568;2022-11-20T00:06:51;-1.10;99.90
44305;DHT22;30019;50.576;8.568;2022-11-20T00:09:16;-1.10;99.90
44305;DHT22;30019;50.576;8.568;2022-11-20T00:11:42;-1.10;99.90
44305;DHT22;30019;50.576;8.568;2022-11-20T00:14:09;-1.00;99.90
44305;DHT22;30019;50.576;8.568;2022-11-20T00:16:35;-1.00;99.90
44305;DHT22;30019;50.576;8.568;2022-11-20T00:19:01;-0.90;99.90
44305;DHT22;30019;50.576;8.568;2022-11-20T00:21:27;-0.90;99.90
44305;DHT22;30019;50.576;8.568;2022-11-20T00:23:55;-0.90;99.90
44305;DHT22;30019;50.576;8.568;2022-11-20T00:26:22;-0.80;99.90
44305;DHT22;30019;50.576;8.568;2022-11-20T00:28:53;-0.70;99.90
44305;DHT22;30019;50.576;8.568;2022-11-20T00:31:19;-0.60;99.90
44305;DHT22;30019;50.576;8.568;2022-11-20T00:33:46;-0.60;99.90
44305;DHT22;30019;50.576;8.568;2022-11-20T00:36:26;-0.60;99.90
44305;DHT22;30019;50.576;8.568;2022-11-20T00:38:53;-0.50;99.90
44305;DHT22;30019;50.576;8.568;2022-11-20T00:41:20;-0.50;99.90
44305;DHT22;30019;50.576;8.568;2022-11-20T00:43:45;-0.40;99.90
44305;DHT22;30019;50.576;8.568;2022-11-20T00:46:15;-0.40;99.90
44305;DHT22;30019;50.576;8.568;2022-11-20T00:48:41;-0.30;99.90
44305;DHT22;30019;50.576;8.568;2022-11-20T00:51:07;-0.30;99.90
44305;DHT22;30019;50.576;8.568;2022-11-20T00:53:33;-0.30;99.90
44305;DHT22;30019;50.576;8.568;2022-11-20T00:56:05;-0.30;99.90
44305;DHT22;30019;50.576;8.568;2022-11-20T00:58:32;-0.30;99.90
44305;DHT22;30019;50.576;8.568;2022-11-20T01:01:10;-0.30;99.90
44305;DHT22;30019;50.576;8.568;2022-11-20T01:03:38;-0.20;99.90
44305;DHT22;30019;50.576;8.568;2022-11-20T01:06:08;-0.30;99.90
44305;DHT22;30019;50.576;8.568;2022-11-20T01:08:35;-0.30;99.90
44305;DHT22;30019;50.576;8.568;2022-11-20T01:11:12;-0.40;99.90
44305;DHT22;30019;50.576;8.568;2022-11-20T01:13:39;-0.40;99.90
44305;DHT22;30019;50.576;8.568;2022-11-20T01:16:09;-0.30;99.90
44305;DHT22;30019;50.576;8.568;2022-11-20T01:18:36;-0.30;99.90
44305;DHT22;30019;50.576;8.568;2022-11-20T01:21:10;-0.40;99.90
44305;DHT22;30019;50.576;8.568;2022-11-20T01:23:39;-0.40;99.90
44305;DHT22;30019;50.576;8.568;2022-11-20T01:26:06;-0.40;99.90
44305;DHT22;30019;50.576;8.568;2022-11-20T01:28:33;-0.40;99.90
44305;DHT22;30019;50.576;8.568;2022-11-20T01:30:59;-0.50;99.90
44305;DHT22;30019;50.576;8.568;2022-11-20T01:33:25;-0.40;99.90
44305;DHT22;30019;50.576;8.568;2022-11-20T01:35:51;-0.30;99.90
44305;DHT22;30019;50.576;8.568;2022-11-20T01:38:17;-0.30;99.90
44305;DHT22;30019;50.576;8.568;2022-11-20T01:40:43;-0.20;99.90
44305;DHT22;30019;50.576;8.568;2022-11-20T01:43:13;-0.30;99.90
44305;DHT22;30019;50.576;8.568;2022-11-20T01:51:20;-0.50;99.90
44305;DHT22;30019;50.576;8.568;2022-11-20T01:53:47;-0.50;99.90
44305;DHT22;30019;50.576;8.568;2022-11-20T01:56:14;-0.50;99.90
44305;DHT22;30019;50.576;8.568;2022-11-20T01:58:46;-0.40;99.90
44305;DHT22;30019;50.576;8.568;2022-11-20T02:01:13;-0.50;99.90
44305;DHT22;30019;50.576;8.568;2022-11-20T02:03:39;-0.40;99.90
44305;DHT22;30019;50.576;8.568;2022-11-20T02:06:16;-0.30;99.90
44305;DHT22;30019;50.576;8.568;2022-11-20T02:08:44;-0.20;99.90
44305;DHT22;30019;50.576;8.568;2022-11-20T02:11:10;-0.20;99.90
44305;DHT22;30019;50.576;8.568;2022-11-20T02:13:35;-0.10;99.90
44305;DHT22;30019;50.576;8.568;2022-11-20T02:16:18;-0.10;99.90
44305;DHT22;30019;50.576;8.568;2022-11-20T02:18:45;-0.10;99.90
44305;DHT22;30019;50.576;8.568;2022-11-20T02:21:28;-0.10;99.90
44305;DHT22;30019;50.576;8.568;2022-11-20T02:24:01;-0.10;99.90
44305;DHT22;30019;50.576;8.568;2022-11-20T02:26:28;-0.10;99.90
44305;DHT22;30019;50.576;8.568;2022-11-20T02:28:55;-0.20;99.90
44305;DHT22;30019;50.576;8.568;2022-11-20T02:31:20;-0.10;99.90
44305;DHT22;30019;50.576;8.568;2022-11-20T02:33:46;-0.10;99.90
44305;DHT22;30019;50.576;8.568;2022-11-20T02:36:14;-0.10;99.90
44305;DHT22;30019;50.576;8.568;2022-11-20T02:38:41;-0.10;99.90
44305;DHT22;30019;50.576;8.568;2022-11-20T02:41:07;-0.20;99.90
44305;DHT22;30019;50.576;8.568;2022-11-20T02:43:33;-0.30;99.90
44305;DHT22;30019;50.576;8.568;2022-11-20T02:45:58;-0.30;99.90
44305;DHT22;30019;50.576;8.568;2022-11-20T02:48:24;-0.30;99.90
44305;DHT22;30019;50.576;8.568;2022-11-20T02:50:50;-0.30;99.90
44305;DHT22;30019;50.576;8.568;2022-11-20T02:53:16;-0.30;99.90
44305;DHT22;30019;50.576;8.568;2022-11-20T02:55:41;-0.30;99.90
44305;DHT22;30019;50.576;8.568;2022-11-20T02:58:07;-0.30;99.90
44305;DHT22;30019;50.576;8.568;2022-11-20T03:00:32;-0.20;99.90
44305;DHT22;30019;50.576;8.568;2022-11-20T03:02:58;-0.10;99.90
44305;DHT22;30019;50.576;8.568;2022-11-20T03:05:24;-0.10;99.90
44305;DHT22;30019;50.576;8.568;2022-11-20T03:07:49;-0.20;99.90
44305;DHT22;30019;50.576;8.568;2022-11-20T03:10:15;-0.10;99.90
44305;DHT22;30019;50.576;8.568;2022-11-20T03:12:41;0.00;99.90
44305;DHT22;30019;50.576;8.568;2022-11-20T03:15:07;0.00;99.90
44305;DHT22;30019;50.576;8.568;2022-11-20T03:17:32;0.00;99.90
44305;DHT22;30019;50.576;8.568;2022-11-20T03:19:58;0.10;99.90
44305;DHT22;30019;50.576;8.568;2022-11-20T03:22:23;0.10;99.90
44305;DHT22;30019;50.576;8.568;2022-11-20T03:24:49;0.00;99.90
44305;DHT22;30019;50.576;8.568;2022-11-20T03:27:14;0.00;99.90
44305;DHT22;30019;50.576;8.568;2022-11-20T03:29:40;0.10;99.90
44305;DHT22;30019;50.576;8.568;2022-11-20T03:32:06;0.00;99.90
44305;DHT22;30019;50.576;8.568;2022-11-20T03:34:31;-0.10;99.90
44305;DHT22;30019;50.576;8.568;2022-11-20T03:36:57;-0.10;99.90
44305;DHT22;30019;50.576;8.568;2022-11-20T03:39:22;-0.10;99.90
44305;DHT22;30019;50.576;8.568;2022-11-20T03:41:48;-0.20;99.90
44305;DHT22;30019;50.576;8.568;2022-11-20T03:44:13;-0.10;99.90
44305;DHT22;30019;50.576;8.568;2022-11-20T03:46:39;-0.10;99.90
44305;DHT22;30019;50.576;8.568;2022-11-20T03:49:05;-0.10;99.90
44305;DHT22;30019;50.576;8.568;2022-11-20T03:51:32;-0.20;99.90
44305;DHT22;30019;50.576;8.568;2022-11-20T03:54:00;-0.20;99.90
44305;DHT22;30019;50.576;8.568;2022-11-20T03:56:28;-0.10;99.90
44305;DHT22;30019;50.576;8.568;2022-11-20T03:58:55;0.00;99.90
44305;DHT22;30019;50.576;8.568;2022-11-20T04:01:23;-0.10;99.90
44305;DHT22;30019;50.576;8.568;2022-11-20T04:03:50;-0.10;99.90
44305;DHT22;30019;50.576;8.568;2022-11-20T04:06:22;0.10;99.90
44305;DHT22;30019;50.576;8.568;2022-11-20T04:08:48;0.10;99.90
44305;DHT22;30019;50.576;8.568;2022-11-20T04:11:22;0.10;99.90
44305;DHT22;30019;50.576;8.568;2022-11-20T04:14:02;0.00;99.90
44305;DHT22;30019;50.576;8.568;2022-11-20T04:16:33;0.00;99.90
44305;DHT22;30019;50.576;8.568;2022-11-20T04:19:00;0.00;99.90
44305;DHT22;30019;50.576;8.568;2022-11-20T04:21:27;0.00;99.90
44305;DHT22;30019;50.576;8.568;2022-11-20T04:23:54;-0.10;99.90
44305;DHT22;30019;50.576;8.568;2022-11-20T04:26:21;-0.20;99.90
44305;DHT22;30019;50.576;8.568;2022-11-20T04:28:47;-0.30;99.90
44305;DHT22;30019;50.576;8.568;2022-11-20T04:31:17;-0.20;99.90
44305;DHT22;30019;50.576;8.568;2022-11-20T04:33:44;-0.20;99.90
44305;DHT22;30019;50.576;8.568;2022-11-20T04:36:17;-0.10;99.90
44305;DHT22;30019;50.576;8.568;2022-11-20T04:38:44;-0.10;99.90
44305;DHT22;30019;50.576;8.568;2022-11-20T04:41:17;0.00;99.90
44305;DHT22;30019;50.576;8.568;2022-11-20T04:43:46;0.00;99.90
44305;DHT22;30019;50.576;8.568;2022-11-20T04:46:13;0.00;99.90
44305;DHT22;30019;50.576;8.568;2022-11-20T04:48:39;0.10;99.90
44305;DHT22;30019;50.576;8.568;2022-11-20T04:51:05;0.20;99.90
44305;DHT22;30019;50.576;8.568;2022-11-20T04:53:31;0.20;99.90
44305;DHT22;30019;50.576;8.568;2022-11-20T04:56:00;0.00;99.90
44305;DHT22;30019;50.576;8.568;2022-11-20T04:58:26;-0.10;99.90
44305;DHT22;30019;50.576;8.568;2022-11-20T05:00:52;-0.10;99.90
44305;DHT22;30019;50.576;8.568;2022-11-20T05:03:17;-0.20;99.90
44305;DHT22;30019;50.576;8.568;2022-11-20T05:05:43;-0.20;99.90
44305;DHT22;30019;50.576;8.568;2022-11-20T05:08:09;-0.20;99.90
44305;DHT22;30019;50.576;8.568;2022-11-20T05:10:34;-0.10;99.90
44305;DHT22;30019;50.576;8.568;2022-11-20T05:13:00;-0.10;99.90
44305;DHT22;30019;50.576;8.568;2022-11-20T05:15:25;0.00;99.90
44305;DHT22;30019;50.576;8.568;2022-11-20T05:17:52;0.00;99.90
44305;DHT22;30019;50.576;8.568;2022-11-20T05:20:18;-0.10;99.90
44305;DHT22;30019;50.576;8.568;2022-11-20T05:22:44;-0.10;99.90
44305;DHT22;30019;50.576;8.568;2022-11-20T05:25:10;-0.10;99.90
44305;DHT22;30019;50.576;8.568;2022-11-20T05:27:36;-0.10;99.90
44305;DHT22;30019;50.576;8.568;2022-11-20T05:30:06;-0.10;99.90
44305;DHT22;30019;50.576;8.568;2022-11-20T05:32:31;0.00;99.90
44305;DHT22;30019;50.576;8.568;2022-11-20T05:34:57;0.00;99.90
44305;DHT22;30019;50.576;8.568;2022-11-20T05:37:23;0.00;99.90
44305;DHT22;30019;50.576;8.568;2022-11-20T05:39:49;0.00;99.90
44305;DHT22;30019;50.576;8.568;2022-11-20T05:42:14;0.10;99.90
44305;DHT22;30019;50.576;8.568;2022-11-20T05:44:55;0.10;99.90
44305;DHT22;30019;50.576;8.568;2022-11-20T05:47:21;0.10;99.90
44305;DHT22;30019;50.576;8.568;2022-11-20T05:49:47;0.00;99.90
44305;DHT22;30019;50.576;8.568;2022-11-20T05:52:12;0.10;99.90
44305;DHT22;30019;50.576;8.568;2022-11-20T05:54:38;0.00;99.90
44305;DHT22;30019;50.576;8.568;2022-11-20T05:57:03;0.00;99.90
44305;DHT22;30019;50.576;8.568;2022-11-20T05:59:29;0.10;99.90
44305;DHT22;30019;50.576;8.568;2022-11-20T06:01:54;0.00;99.90
44305;DHT22;30019;50.576;8.568;2022-11-20T06:04:20;-0.10;99.90
44305;DHT22;30019;50.576;8.568;2022-11-20T06:06:46;-0.20;99.90
44305;DHT22;30019;50.576;8.568;2022-11-20T06:09:11;-0.20;99.90
44305;DHT22;30019;50.576;8.568;2022-11-20T06:11:37;-0.20;99.90
44305;DHT22;30019;50.576;8.568;2022-11-20T06:14:02;-0.10;99.90
44305;DHT22;30019;50.576;8.568;2022-11-20T06:16:28;0.00;99.90
44305;DHT22;30019;50.576;8.568;2022-11-20T06:18:53;0.00;99.90
44305;DHT22;30019;50.576;8.568;2022-11-20T06:21:21;0.10;99.90
44305;DHT22;30019;50.576;8.568;2022-11-20T06:23:47;0.10;99.90
44305;DHT22;30019;50.576;8.568;2022-11-20T06:26:19;0.20;99.90
44305;DHT22;30019;50.576;8.568;2022-11-20T06:28:45;0.20;99.90
44305;DHT22;30019;50.576;8.568;2022-11-20T06:31:14;0.20;99.90
44305;DHT22;30019;50.576;8.568;2022-11-20T06:33:40;0.30;99.90
44305;DHT22;30019;50.576;8.568;2022-11-20T06:36:07;0.30;99.90
44305;DHT22;30019;50.576;8.568;2022-11-20T06:38:32;0.30;99.90
44305;DHT22;30019;50.576;8.568;2022-11-20T06:40:58;0.40;99.90
44305;DHT22;30019;50.576;8.568;2022-11-20T06:43:24;0.40;99.90
44305;DHT22;30019;50.576;8.568;2022-11-20T06:45:57;0.40;99.90
44305;DHT22;30019;50.576;8.568;2022-11-20T06:48:25;0.40;99.90
44305;DHT22;30019;50.576;8.568;2022-11-20T06:50:50;0.40;99.90
44305;DHT22;30019;50.576;8.568;2022-11-20T06:53:16;0.40;99.90
44305;DHT22;30019;50.576;8.568;2022-11-20T06:55:43;0.30;99.90
44305;DHT22;30019;50.576;8.568;2022-11-20T06:58:09;0.20;99.90
44305;DHT22;30019;50.576;8.568;2022-11-20T07:00:35;0.10;99.90
44305;DHT22;30019;50.576;8.568;2022-11-20T07:03:08;0.20;99.90
44305;DHT22;30019;50.576;8.568;2022-11-20T07:05:34;0.40;99.90
44305;DHT22;30019;50.576;8.568;2022-11-20T07:08:01;0.30;99.90
44305;DHT22;30019;50.576;8.568;2022-11-20T07:10:27;0.40;99.90
44305;DHT22;30019;50.576;8.568;2022-11-20T07:12:53;0.40;99.90
44305;DHT22;30019;50.576;8.568;2022-11-20T07:15:22;0.30;99.90
44305;DHT22;30019;50.576;8.568;2022-11-20T07:17:48;0.20;99.90
44305;DHT22;30019;50.576;8.568;2022-11-20T07:20:15;0.30;99.90
44305;DHT22;30019;50.576;8.568;2022-11-20T07:22:41;0.40;99.90
44305;DHT22;30019;50.576;8.568;2022-11-20T07:25:07;0.50;99.90
44305;DHT22;30019;50.576;8.568;2022-11-20T07:27:33;0.30;99.90
44305;DHT22;30019;50.576;8.568;2022-11-20T07:29:59;0.20;99.90
44305;DHT22;30019;50.576;8.568;2022-11-20T07:32:25;0.10;99.90
44305;DHT22;30019;50.576;8.568;2022-11-20T07:34:51;0.10;99.90
44305;DHT22;30019;50.576;8.568;2022-11-20T07:37:17;0.10;99.90
44305;DHT22;30019;50.576;8.568;2022-11-20T07:39:42;0.10;99.90
44305;DHT22;30019;50.576;8.568;2022-11-20T07:42:09;0.00;99.90
44305;DHT22;30019;50.576;8.568;2022-11-20T07:44:35;0.10;99.90
44305;DHT22;30019;50.576;8.568;2022-11-20T07:47:01;0.20;99.90
44305;DHT22;30019;50.576;8.568;2022-11-20T07:49:27;0.20;99.90
44305;DHT22;30019;50.576;8.568;2022-11-20T07:51:52;0.20;99.90
44305;DHT22;30019;50.576;8.568;2022-11-20T07:54:19;0.10;99.90
44305;DHT22;30019;50.576;8.568;2022-11-20T07:56:45;0.10;99.90
44305;DHT22;30019;50.576;8.568;2022-11-20T07:59:11;0.20;99.90
44305;DHT22;30019;50.576;8.568;2022-11-20T08:01:37;0.20;99.90
44305;DHT22;30019;50.576;8.568;2022-11-20T08:04:03;0.20;99.90
44305;DHT22;30019;50.576;8.568;2022-11-20T08:06:30;0.30;99.90
44305;DHT22;30019;50.576;8.568;2022-11-20T08:08:55;0.40;99.90
44305;DHT22;30019;50.576;8.568;2022-11-20T08:11:21;0.40;99.90
44305;DHT22;30019;50.576;8.568;2022-11-20T08:14:05;0.40;99.90
44305;DHT22;30019;50.576;8.568;2022-11-20T08:16:37;0.60;99.90
44305;DHT22;30019;50.576;8.568;2022-11-20T08:19:03;0.60;99.90
44305;DHT22;30019;50.576;8.568;2022-11-20T08:21:30;0.60;99.90
44305;DHT22;30019;50.576;8.568;2022-11-20T08:23:57;0.60;99.90
44305;DHT22;30019;50.576;8.568;2022-11-20T08:26:23;0.60;99.90
44305;DHT22;30019;50.576;8.568;2022-11-20T08:28:52;0.60;99.90
44305;DHT22;30019;50.576;8.568;2022-11-20T08:31:18;0.50;99.90
44305;DHT22;30019;50.576;8.568;2022-11-20T08:33:43;0.50;99.90
44305;DHT22;30019;50.576;8.568;2022-11-20T08:36:09;0.60;99.90
44305;DHT22;30019;50.576;8.568;2022-11-20T08:38:35;0.70;99.90
44305;DHT22;30019;50.576;8.568;2022-11-20T08:41:02;0.60;99.90
44305;DHT22;30019;50.576;8.568;2022-11-20T08:43:47;0.60;99.90
44305;DHT22;30019;50.576;8.568;2022-11-20T08:46:16;0.60;99.90
44305;DHT22;30019;50.576;8.568;2022-11-20T08:48:42;0.60;99.90
44305;DHT22;30019;50.576;8.568;2022-11-20T08:51:07;0.60;99.90
44305;DHT22;30019;50.576;8.568;2022-11-20T08:53:33;0.70;99.90
44305;DHT22;30019;50.576;8.568;2022-11-20T08:55:59;0.70;99.90
44305;DHT22;30019;50.576;8.568;2022-11-20T08:58:25;0.70;99.90
44305;DHT22;30019;50.576;8.568;2022-11-20T09:00:51;0.80;99.90
44305;DHT22;30019;50.576;8.568;2022-11-20T09:03:17;0.80;99.90
44305;DHT22;30019;50.576;8.568;2022-11-20T09:05:42;0.90;99.90
44305;DHT22;30019;50.576;8.568;2022-11-20T09:08:08;0.90;99.90
44305;DHT22;30019;50.576;8.568;2022-11-20T09:10:34;0.90;99.90
44305;DHT22;30019;50.576;8.568;2022-11-20T09:12:59;1.10;99.90
44305;DHT22;30019;50.576;8.568;2022-11-20T09:15:26;1.10;99.90
44305;DHT22;30019;50.576;8.568;2022-11-20T09:17:52;1.10;99.90
44305;DHT22;30019;50.576;8.568;2022-11-20T09:20:17;1.20;99.90
44305;DHT22;30019;50.576;8.568;2022-11-20T09:22:44;1.30;99.90
44305;DHT22;30019;50.576;8.568;2022-11-20T09:25:09;1.30;99.90
44305;DHT22;30019;50.576;8.568;2022-11-20T09:27:35;1.20;99.90
44305;DHT22;30019;50.576;8.568;2022-11-20T09:30:01;1.30;99.90
44305;DHT22;30019;50.576;8.568;2022-11-20T09:32:27;1.20;99.90
44305;DHT22;30019;50.576;8.568;2022-11-20T09:34:53;1.10;99.90
44305;DHT22;30019;50.576;8.568;2022-11-20T09:37:18;1.10;99.90
44305;DHT22;30019;50.576;8.568;2022-11-20T09:39:44;1.10;99.90
44305;DHT22;30019;50.576;8.568;2022-11-20T09:42:32;1.10;99.90
44305;DHT22;30019;50.576;8.568;2022-11-20T09:53:36;2.00;99.90
44305;DHT22;30019;50.576;8.568;2022-11-20T09:56:08;2.00;99.90
44305;DHT22;30019;50.576;8.568;2022-11-20T09:58:45;2.20;99.90
44305;DHT22;30019;50.576;8.568;2022-11-20T10:01:17;2.20;99.90
44305;DHT22;30019;50.576;8.568;2022-11-20T10:04:10;2.40;99.90
44305;DHT22;30019;50.576;8.568;2022-11-20T10:06:56;2.50;99.90
44305;DHT22;30019;50.576;8.568;2022-11-20T10:09:39;2.40;99.90
44305;DHT22;30019;50.576;8.568;2022-11-20T10:21:08;3.00;99.90
44305;DHT22;30019;50.576;8.568;2022-11-20T10:29:15;3.10;99.90
44305;DHT22;30019;50.576;8.568;2022-11-20T10:31:46;3.20;99.90
44305;DHT22;30019;50.576;8.568;2022-11-20T10:34:33;3.10;99.90
44305;DHT22;30019;50.576;8.568;2022-11-20T10:37:17;3.10;99.90
44305;DHT22;30019;50.576;8.568;2022-11-20T10:40:05;2.90;99.90
44305;DHT22;30019;50.576;8.568;2022-11-20T10:42:45;3.00;99.90
44305;DHT22;30019;50.576;8.568;2022-11-20T10:47:54;2.70;99.90
44305;DHT22;30019;50.576;8.568;2022-11-20T10:50:21;2.40;99.90
44305;DHT22;30019;50.576;8.568;2022-11-20T10:53:10;2.30;99.90
44305;DHT22;30019;50.576;8.568;2022-11-20T10:56:30;2.30;99.90
44305;DHT22;30019;50.576;8.568;2022-11-20T10:59:14;2.30;99.90
44305;DHT22;30019;50.576;8.568;2022-11-20T11:01:47;2.30;99.90
44305;DHT22;30019;50.576;8.568;2022-11-20T11:04:42;2.30;99.90
44305;DHT22;30019;50.576;8.568;2022-11-20T11:07:14;2.50;99.90
44305;DHT22;30019;50.576;8.568;2022-11-20T11:09:44;2.50;99.90
44305;DHT22;30019;50.576;8.568;2022-11-20T11:12:12;2.60;99.90
44305;DHT22;30019;50.576;8.568;2022-11-20T11:14:52;2.60;99.90
44305;DHT22;30019;50.576;8.568;2022-11-20T11:17:31;2.60;99.90
44305;DHT22;30019;50.576;8.568;2022-11-20T11:22:24;2.90;99.90
44305;DHT22;30019;50.576;8.568;2022-11-20T11:24:52;2.80;99.90
44305;DHT22;30019;50.576;8.568;2022-11-20T11:27:18;2.90;99.90
44305;DHT22;30019;50.576;8.568;2022-11-20T11:29:47;2.90;99.90
44305;DHT22;30019;50.576;8.568;2022-11-20T11:32:15;2.90;99.90
44305;DHT22;30019;50.576;8.568;2022-11-20T11:34:42;2.90;99.90
44305;DHT22;30019;50.576;8.568;2022-11-20T11:37:17;2.80;99.90
44305;DHT22;30019;50.576;8.568;2022-11-20T11:39:44;2.80;99.90
44305;DHT22;30019;50.576;8.568;2022-11-20T11:42:17;2.90;99.90
44305;DHT22;30019;50.576;8.568;2022-11-20T11:44:45;3.00;99.90
44305;DHT22;30019;50.576;8.568;2022-11-20T11:47:42;3.10;99.90
44305;DHT22;30019;50.576;8.568;2022-11-20T11:55:15;3.10;99.90
44305;DHT22;30019;50.576;8.568;2022-11-20T12:00:26;3.20;99.90
44305;DHT22;30019;50.576;8.568;2022-11-20T12:03:18;3.20;99.90
44305;DHT22;30019;50.576;8.568;2022-11-20T12:06:00;3.00;99.90
44305;DHT22;30019;50.576;8.568;2022-11-20T12:11:33;3.10;99.90
44305;DHT22;30019;50.576;8.568;2022-11-20T12:14:14;3.20;99.90
44305;DHT22;30019;50.576;8.568;2022-11-20T12:16:42;3.20;99.90
44305;DHT22;30019;50.576;8.568;2022-11-20T12:19:12;3.40;99.90
44305;DHT22;30019;50.576;8.568;2022-11-20T12:24:30;3.50;99.90
44305;DHT22;30019;50.576;8.568;2022-11-20T12:27:23;3.60;99.90
44305;DHT22;30019;50.576;8.568;2022-11-20T12:32:54;3.60;99.90
44305;DHT22;30019;50.576;8.568;2022-11-20T12:53:10;3.40;99.90
44305;DHT22;30019;50.576;8.568;2022-11-20T12:55:47;3.30;99.90
44305;DHT22;30019;50.576;8.568;2022-11-20T12:58:31;3.30;99.90
44305;DHT22;30019;50.576;8.568;2022-11-20T13:04:34;3.50;99.90
44305;DHT22;30019;50.576;8.568;2022-11-20T13:07:11;3.40;99.90
44305;DHT22;30019;50.576;8.568;2022-11-20T13:09:45;3.30;99.90
44305;DHT22;30019;50.576;8.568;2022-11-20T13:12:18;3.30;99.90
44305;DHT22;30019;50.576;8.568;2022-11-20T13:17:54;3.40;99.90
44305;DHT22;30019;50.576;8.568;2022-11-20T13:20:21;3.30;99.90
44305;DHT22;30019;50.576;8.568;2022-11-20T13:22:49;3.30;99.90
44305;DHT22;30019;50.576;8.568;2022-11-20T13:25:24;3.20;99.90
44305;DHT22;30019;50.576;8.568;2022-11-20T13:27:50;3.20;99.90
44305;DHT22;30019;50.576;8.568;2022-11-20T13:30:18;3.30;99.90
44305;DHT22;30019;50.576;8.568;2022-11-20T13:33:22;3.40;99.90
44305;DHT22;30019;50.576;8.568;2022-11-20T13:35:40;3.50;99.90
44305;DHT22;30019;50.576;8.568;2022-11-20T13:38:11;3.60;99.90
44305;DHT22;30019;50.576;8.568;2022-11-20T13:40:58;3.70;99.90
44305;DHT22;30019;50.576;8.568;2022-11-20T13:43:37;3.70;99.90
44305;DHT22;30019;50.576;8.568;2022-11-20T13:46:06;3.70;99.90
44305;DHT22;30019;50.576;8.568;2022-11-20T13:48:38;3.60;99.90
44305;DHT22;30019;50.576;8.568;2022-11-20T13:57:08;3.50;99.90
44305;DHT22;30019;50.576;8.568;2022-11-20T14:02:29;3.40;99.90
44305;DHT22;30019;50.576;8.568;2022-11-20T14:04:58;3.30;99.90
44305;DHT22;30019;50.576;8.568;2022-11-20T14:07:31;3.30;99.90
44305;DHT22;30019;50.576;8.568;2022-11-20T14:09:58;3.40;99.90
44305;DHT22;30019;50.576;8.568;2022-11-20T14:12:29;3.40;99.90
44305;DHT22;30019;50.576;8.568;2022-11-20T14:14:55;3.20;99.90
44305;DHT22;30019;50.576;8.568;2022-11-20T14:19:58;3.20;99.90
44305;DHT22;30019;50.576;8.568;2022-11-20T14:22:26;3.20;99.90
44305;DHT22;30019;50.576;8.568;2022-11-20T14:25:22;3.20;99.90
44305;DHT22;30019;50.576;8.568;2022-11-20T14:27:59;3.10;99.90
44305;DHT22;30019;50.576;8.568;2022-11-20T14:33:03;3.10;99.90
44305;DHT22;30019;50.576;8.568;2022-11-20T14:35:34;3.00;99.90
44305;DHT22;30019;50.576;8.568;2022-11-20T14:38:01;3.00;99.90
44305;DHT22;30019;50.576;8.568;2022-11-20T14:40:31;3.00;99.90
44305;DHT22;30019;50.576;8.568;2022-11-20T14:42:58;3.00;99.90
44305;DHT22;30019;50.576;8.568;2022-11-20T14:45:26;3.00;99.90
44305;DHT22;30019;50.576;8.568;2022-11-20T14:47:53;3.00;99.90
44305;DHT22;30019;50.576;8.568;2022-11-20T14:50:24;3.00;99.90
44305;DHT22;30019;50.576;8.568;2022-11-20T14:52:58;3.00;99.90
44305;DHT22;30019;50.576;8.568;2022-11-20T14:55:32;2.90;99.90
44305;DHT22;30019;50.576;8.568;2022-11-20T14:58:01;2.90;99.90
44305;DHT22;30019;50.576;8.568;2022-11-20T15:00:28;2.90;99.90
44305;DHT22;30019;50.576;8.568;2022-11-20T15:02:54;2.90;99.90
44305;DHT22;30019;50.576;8.568;2022-11-20T15:05:23;2.90;99.90
44305;DHT22;30019;50.576;8.568;2022-11-20T15:08:12;2.90;99.90
44305;DHT22;30019;50.576;8.568;2022-11-20T15:10:37;2.90;99.90
44305;DHT22;30019;50.576;8.568;2022-11-20T15:13:10;2.90;99.90
44305;DHT22;30019;50.576;8.568;2022-11-20T15:15:44;2.90;99.90
44305;DHT22;30019;50.576;8.568;2022-11-20T15:18:12;2.90;99.90
44305;DHT22;30019;50.576;8.568;2022-11-20T15:20:38;2.80;99.90
44305;DHT22;30019;50.576;8.568;2022-11-20T15:23:13;2.80;99.90
44305;DHT22;30019;50.576;8.568;2022-11-20T15:25:40;2.80;99.90
44305;DHT22;30019;50.576;8.568;2022-11-20T15:28:15;2.80;99.90
44305;DHT22;30019;50.576;8.568;2022-11-20T15:30:41;2.80;99.90
44305;DHT22;30019;50.576;8.568;2022-11-20T15:33:08;2.80;99.90
44305;DHT22;30019;50.576;8.568;2022-11-20T15:35:34;2.80;99.90
44305;DHT22;30019;50.576;8.568;2022-11-20T15:37:59;2.80;99.90
44305;DHT22;30019;50.576;8.568;2022-11-20T15:40:25;2.80;99.90
44305;DHT22;30019;50.576;8.568;2022-11-20T15:42:51;2.80;99.90
44305;DHT22;30019;50.576;8.568;2022-11-20T15:45:31;2.80;99.90
44305;DHT22;30019;50.576;8.568;2022-11-20T15:47:59;2.80;99.90
44305;DHT22;30019;50.576;8.568;2022-11-20T15:50:33;2.80;99.90
44305;DHT22;30019;50.576;8.568;2022-11-20T15:52:59;2.80;99.90
44305;DHT22;30019;50.576;8.568;2022-11-20T15:55:25;2.80;99.90
44305;DHT22;30019;50.576;8.568;2022-11-20T15:57:51;2.80;99.90
44305;DHT22;30019;50.576;8.568;2022-11-20T16:00:17;2.80;99.90
44305;DHT22;30019;50.576;8.568;2022-11-20T16:02:42;2.80;99.90
44305;DHT22;30019;50.576;8.568;2022-11-20T16:05:12;2.70;99.90
44305;DHT22;30019;50.576;8.568;2022-11-20T16:07:38;2.70;99.90
44305;DHT22;30019;50.576;8.568;2022-11-20T16:10:04;2.70;99.90
44305;DHT22;30019;50.576;8.568;2022-11-20T16:12:30;2.70;99.90
44305;DHT22;30019;50.576;8.568;2022-11-20T16:15:14;2.70;99.90
44305;DHT22;30019;50.576;8.568;2022-11-20T16:17:58;2.70;99.90
44305;DHT22;30019;50.576;8.568;2022-11-20T16:20:24;2.70;99.90
44305;DHT22;30019;50.576;8.568;2022-11-20T16:22:49;2.70;99.90
44305;DHT22;30019;50.576;8.568;2022-11-20T16:25:15;2.70;99.90
44305;DHT22;30019;50.576;8.568;2022-11-20T16:27:41;2.70;99.90
44305;DHT22;30019;50.576;8.568;2022-11-20T16:30:07;2.80;99.90
44305;DHT22;30019;50.576;8.568;2022-11-20T16:32:33;2.80;99.90
44305;DHT22;30019;50.576;8.568;2022-11-20T16:34:58;2.80;99.90
44305;DHT22;30019;50.576;8.568;2022-11-20T16:37:24;2.80;99.90
44305;DHT22;30019;50.576;8.568;2022-11-20T16:39:49;2.80;99.90
44305;DHT22;30019;50.576;8.568;2022-11-20T16:42:15;2.80;99.90
44305;DHT22;30019;50.576;8.568;2022-11-20T16:44:40;2.80;99.90
44305;DHT22;30019;50.576;8.568;2022-11-20T16:47:06;2.90;99.90
44305;DHT22;30019;50.576;8.568;2022-11-20T16:49:32;2.80;99.90
44305;DHT22;30019;50.576;8.568;2022-11-20T16:51:58;2.90;99.90
44305;DHT22;30019;50.576;8.568;2022-11-20T16:54:23;2.90;99.90
44305;DHT22;30019;50.576;8.568;2022-11-20T16:56:49;2.90;99.90
44305;DHT22;30019;50.576;8.568;2022-11-20T16:59:17;2.90;99.90
44305;DHT22;30019;50.576;8.568;2022-11-20T17:01:43;2.90;99.90
44305;DHT22;30019;50.576;8.568;2022-11-20T17:04:09;3.00;99.90
44305;DHT22;30019;50.576;8.568;2022-11-20T17:06:37;2.90;99.90
44305;DHT22;30019;50.576;8.568;2022-11-20T17:09:03;2.90;99.90
44305;DHT22;30019;50.576;8.568;2022-11-20T17:11:29;3.00;99.90
44305;DHT22;30019;50.576;8.568;2022-11-20T17:13:56;2.90;99.90
44305;DHT22;30019;50.576;8.568;2022-11-20T17:16:23;2.90;99.90
44305;DHT22;30019;50.576;8.568;2022-11-20T17:18:50;2.90;99.90
44305;DHT22;30019;50.576;8.568;2022-11-20T17:21:17;2.90;99.90
44305;DHT22;30019;50.576;8.568;2022-11-20T17:23:44;2.90;99.90